sensor_id;sensor_type;location;lat;lon;timestamp;P1;durP1;ratioP1;P2;durP2;ratioP2
26920;SDS011;14483;47.844;9.660;2023-12-04T00:00:17;10.40;;;4.22;;
26920;SDS011;14483;47.844;9.660;2023-12-04T00:02:43;7.25;;;3.75;;
26920;SDS011;14483;47.844;9.660;2023-12-04T00:05:11;12.68;;;4.68;;
26920;SDS011;14483;47.844;9.660;2023-12-04T00:07:37;7.95;;;4.22;;
26920;SDS011;14483;47.844;9.660;2023-12-04T00:10:04;10.43;;;4.75;;
26920;SDS011;14483;47.844;9.660;2023-12-04T00:12:31;9.23;;;3.90;;
26920;SDS011;14483;47.844;9.660;2023-12-04T00:14:57;10.65;;;3.88;;
26920;SDS011;14483;47.844;9.660;2023-12-04T00:17:23;9.82;;;3.53;;
26920;SDS011;14483;47.844;9.660;2023-12-04T00:19:50;10.05;;;3.80;;
26920;SDS011;14483;47.844;9.660;2023-12-04T00:22:17;9.05;;;3.20;;
26920;SDS011;14483;47.844;9.660;2023-12-04T00:24:44;11.38;;;5.03;;
26920;SDS011;14483;47.844;9.660;2023-12-04T00:27:10;11.05;;;4.78;;
26920;SDS011;14483;47.844;9.660;2023-12-04T00:29:37;13.75;;;5.85;;
26920;SDS011;14483;47.844;9.660;2023-12-04T00:32:03;13.02;;;5.20;;
26920;SDS011;14483;47.844;9.660;2023-12-04T00:34:30;15.52;;;5.50;;
26920;SDS011;14483;47.844;9.660;2023-12-04T00:36:56;11.52;;;4.43;;
26920;SDS011;14483;47.844;9.660;2023-12-04T00:39:24;14.50;;;5.68;;
26920;SDS011;14483;47.844;9.660;2023-12-04T00:41:50;17.55;;;5.43;;
26920;SDS011;14483;47.844;9.660;2023-12-04T00:44:16;21.30;;;6.13;;
26920;SDS011;14483;47.844;9.660;2023-12-04T00:46:43;17.48;;;6.68;;
26920;SDS011;14483;47.844;9.660;2023-12-04T00:49:09;21.02;;;7.70;;
26920;SDS011;14483;47.844;9.660;2023-12-04T00:51:38;18.40;;;8.10;;
26920;SDS011;14483;47.844;9.660;2023-12-04T00:54:05;18.88;;;6.43;;
26920;SDS011;14483;47.844;9.660;2023-12-04T00:56:32;16.67;;;5.93;;
26920;SDS011;14483;47.844;9.660;2023-12-04T00:58:59;15.57;;;5.70;;
26920;SDS011;14483;47.844;9.660;2023-12-04T01:01:25;20.52;;;5.43;;
26920;SDS011;14483;47.844;9.660;2023-12-04T01:03:52;14.73;;;6.15;;
26920;SDS011;14483;47.844;9.660;2023-12-04T01:06:21;17.02;;;6.13;;
26920;SDS011;14483;47.844;9.660;2023-12-04T01:08:48;11.60;;;4.43;;
26920;SDS011;14483;47.844;9.660;2023-12-04T01:11:15;18.25;;;5.40;;
26920;SDS011;14483;47.844;9.660;2023-12-04T01:13:42;12.57;;;5.07;;
26920;SDS011;14483;47.844;9.660;2023-12-04T01:16:09;10.35;;;3.97;;
26920;SDS011;14483;47.844;9.660;2023-12-04T01:18:35;13.63;;;5.00;;
26920;SDS011;14483;47.844;9.660;2023-12-04T01:21:01;11.30;;;4.32;;
26920;SDS011;14483;47.844;9.660;2023-12-04T01:23:28;11.32;;;4.45;;
26920;SDS011;14483;47.844;9.660;2023-12-04T01:25:54;9.27;;;4.03;;
26920;SDS011;14483;47.844;9.660;2023-12-04T01:28:21;10.45;;;4.25;;
26920;SDS011;14483;47.844;9.660;2023-12-04T01:30:48;7.38;;;3.95;;
26920;SDS011;14483;47.844;9.660;2023-12-04T01:33:15;12.55;;;3.88;;
26920;SDS011;14483;47.844;9.660;2023-12-04T01:35:41;13.57;;;4.28;;
26920;SDS011;14483;47.844;9.660;2023-12-04T01:38:07;9.60;;;4.43;;
26920;SDS011;14483;47.844;9.660;2023-12-04T01:40:34;13.60;;;5.82;;
26920;SDS011;14483;47.844;9.660;2023-12-04T01:43:00;11.73;;;4.65;;
26920;SDS011;14483;47.844;9.660;2023-12-04T01:45:26;17.02;;;6.35;;
26920;SDS011;14483;47.844;9.660;2023-12-04T01:47:54;14.35;;;5.47;;
26920;SDS011;14483;47.844;9.660;2023-12-04T01:50:21;12.80;;;4.22;;
26920;SDS011;14483;47.844;9.660;2023-12-04T01:52:47;14.02;;;4.30;;
26920;SDS011;14483;47.844;9.660;2023-12-04T01:55:15;12.63;;;4.30;;
26920;SDS011;14483;47.844;9.660;2023-12-04T01:57:42;10.68;;;4.03;;
26920;SDS011;14483;47.844;9.660;2023-12-04T02:00:08;7.97;;;3.97;;
26920;SDS011;14483;47.844;9.660;2023-12-04T02:02:36;9.38;;;4.00;;
26920;SDS011;14483;47.844;9.660;2023-12-04T02:05:04;10.13;;;4.05;;
26920;SDS011;14483;47.844;9.660;2023-12-04T02:07:31;13.63;;;5.15;;
26920;SDS011;14483;47.844;9.660;2023-12-04T02:09:58;8.82;;;4.35;;
26920;SDS011;14483;47.844;9.660;2023-12-04T02:12:25;15.93;;;5.07;;
26920;SDS011;14483;47.844;9.660;2023-12-04T02:14:51;8.02;;;3.47;;
26920;SDS011;14483;47.844;9.660;2023-12-04T02:17:17;10.63;;;4.18;;
26920;SDS011;14483;47.844;9.660;2023-12-04T02:19:45;13.57;;;3.65;;
26920;SDS011;14483;47.844;9.660;2023-12-04T02:22:12;8.52;;;3.67;;
26920;SDS011;14483;47.844;9.660;2023-12-04T02:24:40;10.43;;;4.38;;
26920;SDS011;14483;47.844;9.660;2023-12-04T02:27:10;11.95;;;3.70;;
26920;SDS011;14483;47.844;9.660;2023-12-04T02:29:39;8.15;;;3.53;;
26920;SDS011;14483;47.844;9.660;2023-12-04T02:32:06;13.52;;;4.07;;
26920;SDS011;14483;47.844;9.660;2023-12-04T02:34:35;11.40;;;4.07;;
26920;SDS011;14483;47.844;9.660;2023-12-04T02:37:02;9.40;;;3.55;;
26920;SDS011;14483;47.844;9.660;2023-12-04T02:39:29;5.80;;;2.42;;
26920;SDS011;14483;47.844;9.660;2023-12-04T02:41:57;11.32;;;4.45;;
26920;SDS011;14483;47.844;9.660;2023-12-04T02:44:23;10.85;;;3.78;;
26920;SDS011;14483;47.844;9.660;2023-12-04T02:46:50;8.80;;;3.17;;
26920;SDS011;14483;47.844;9.660;2023-12-04T02:49:16;6.35;;;2.97;;
26920;SDS011;14483;47.844;9.660;2023-12-04T02:51:43;13.20;;;4.03;;
26920;SDS011;14483;47.844;9.660;2023-12-04T02:54:09;11.65;;;3.55;;
26920;SDS011;14483;47.844;9.660;2023-12-04T02:56:35;8.88;;;3.92;;
26920;SDS011;14483;47.844;9.660;2023-12-04T02:59:03;8.00;;;3.70;;
26920;SDS011;14483;47.844;9.660;2023-12-04T03:01:29;11.23;;;3.67;;
26920;SDS011;14483;47.844;9.660;2023-12-04T03:03:56;8.20;;;3.75;;
26920;SDS011;14483;47.844;9.660;2023-12-04T03:06:22;14.00;;;4.85;;
26920;SDS011;14483;47.844;9.660;2023-12-04T03:08:49;6.43;;;2.75;;
26920;SDS011;14483;47.844;9.660;2023-12-04T03:11:15;9.27;;;3.00;;
26920;SDS011;14483;47.844;9.660;2023-12-04T03:13:41;6.32;;;3.22;;
26920;SDS011;14483;47.844;9.660;2023-12-04T03:16:15;8.35;;;4.30;;
26920;SDS011;14483;47.844;9.660;2023-12-04T03:18:42;8.25;;;3.97;;
26920;SDS011;14483;47.844;9.660;2023-12-04T03:21:08;9.73;;;3.63;;
26920;SDS011;14483;47.844;9.660;2023-12-04T03:23:34;9.88;;;3.85;;
26920;SDS011;14483;47.844;9.660;2023-12-04T03:26:01;11.45;;;4.63;;
26920;SDS011;14483;47.844;9.660;2023-12-04T03:28:27;9.63;;;5.00;;
26920;SDS011;14483;47.844;9.660;2023-12-04T03:30:53;9.00;;;4.00;;
26920;SDS011;14483;47.844;9.660;2023-12-04T03:33:21;9.57;;;4.05;;
26920;SDS011;14483;47.844;9.660;2023-12-04T03:35:48;12.10;;;4.55;;
26920;SDS011;14483;47.844;9.660;2023-12-04T03:38:14;10.35;;;4.57;;
26920;SDS011;14483;47.844;9.660;2023-12-04T03:40:40;11.50;;;5.35;;
26920;SDS011;14483;47.844;9.660;2023-12-04T03:43:07;10.23;;;4.40;;
26920;SDS011;14483;47.844;9.660;2023-12-04T03:45:33;14.00;;;4.65;;
26920;SDS011;14483;47.844;9.660;2023-12-04T03:47:59;15.05;;;6.13;;
26920;SDS011;14483;47.844;9.660;2023-12-04T03:50:27;13.80;;;5.35;;
26920;SDS011;14483;47.844;9.660;2023-12-04T03:52:53;12.13;;;5.22;;
26920;SDS011;14483;47.844;9.660;2023-12-04T03:55:20;11.02;;;4.68;;
26920;SDS011;14483;47.844;9.660;2023-12-04T03:57:46;12.98;;;5.20;;
26920;SDS011;14483;47.844;9.660;2023-12-04T04:00:13;11.30;;;5.28;;
26920;SDS011;14483;47.844;9.660;2023-12-04T04:02:39;14.18;;;4.78;;
26920;SDS011;14483;47.844;9.660;2023-12-04T04:05:06;9.95;;;4.68;;
26920;SDS011;14483;47.844;9.660;2023-12-04T04:07:34;12.57;;;5.05;;
26920;SDS011;14483;47.844;9.660;2023-12-04T04:10:00;14.40;;;5.18;;
26920;SDS011;14483;47.844;9.660;2023-12-04T04:12:27;12.65;;;4.57;;
26920;SDS011;14483;47.844;9.660;2023-12-04T04:14:53;12.43;;;4.32;;
26920;SDS011;14483;47.844;9.660;2023-12-04T04:17:20;11.25;;;4.72;;
26920;SDS011;14483;47.844;9.660;2023-12-04T04:19:46;11.65;;;4.22;;
26920;SDS011;14483;47.844;9.660;2023-12-04T04:22:12;14.25;;;4.28;;
26920;SDS011;14483;47.844;9.660;2023-12-04T04:24:40;18.42;;;6.35;;
26920;SDS011;14483;47.844;9.660;2023-12-04T04:27:06;13.38;;;4.18;;
26920;SDS011;14483;47.844;9.660;2023-12-04T04:29:33;11.73;;;4.53;;
26920;SDS011;14483;47.844;9.660;2023-12-04T04:31:59;15.77;;;5.57;;
26920;SDS011;14483;47.844;9.660;2023-12-04T04:34:25;9.38;;;3.33;;
26920;SDS011;14483;47.844;9.660;2023-12-04T04:36:52;11.80;;;4.60;;
26920;SDS011;14483;47.844;9.660;2023-12-04T04:39:18;14.27;;;6.38;;
26920;SDS011;14483;47.844;9.660;2023-12-04T04:41:46;17.85;;;5.13;;
26920;SDS011;14483;47.844;9.660;2023-12-04T04:44:12;11.05;;;4.07;;
26920;SDS011;14483;47.844;9.660;2023-12-04T04:46:39;14.65;;;5.68;;
26920;SDS011;14483;47.844;9.660;2023-12-04T04:49:05;5.63;;;3.13;;
26920;SDS011;14483;47.844;9.660;2023-12-04T04:51:32;11.13;;;4.40;;
26920;SDS011;14483;47.844;9.660;2023-12-04T04:53:58;10.98;;;4.25;;
26920;SDS011;14483;47.844;9.660;2023-12-04T04:56:25;11.55;;;4.43;;
26920;SDS011;14483;47.844;9.660;2023-12-04T04:58:52;10.20;;;4.20;;
26920;SDS011;14483;47.844;9.660;2023-12-04T05:01:19;14.23;;;4.35;;
26920;SDS011;14483;47.844;9.660;2023-12-04T05:03:45;9.73;;;4.13;;
26920;SDS011;14483;47.844;9.660;2023-12-04T05:06:11;13.15;;;4.80;;
26920;SDS011;14483;47.844;9.660;2023-12-04T05:08:38;12.57;;;4.10;;
26920;SDS011;14483;47.844;9.660;2023-12-04T05:11:04;11.75;;;5.03;;
26920;SDS011;14483;47.844;9.660;2023-12-04T05:13:31;12.75;;;4.75;;
26920;SDS011;14483;47.844;9.660;2023-12-04T05:15:58;9.88;;;4.00;;
26920;SDS011;14483;47.844;9.660;2023-12-04T05:18:25;13.40;;;4.90;;
26920;SDS011;14483;47.844;9.660;2023-12-04T05:20:50;13.23;;;4.78;;
26920;SDS011;14483;47.844;9.660;2023-12-04T05:23:17;13.90;;;6.00;;
26920;SDS011;14483;47.844;9.660;2023-12-04T05:25:43;18.25;;;8.88;;
26920;SDS011;14483;47.844;9.660;2023-12-04T05:28:09;17.55;;;5.30;;
26920;SDS011;14483;47.844;9.660;2023-12-04T05:30:36;15.68;;;6.28;;
26920;SDS011;14483;47.844;9.660;2023-12-04T05:33:04;13.75;;;5.57;;
26920;SDS011;14483;47.844;9.660;2023-12-04T05:35:30;8.63;;;5.25;;
26920;SDS011;14483;47.844;9.660;2023-12-04T05:37:58;14.60;;;6.00;;
26920;SDS011;14483;47.844;9.660;2023-12-04T05:40:25;15.00;;;4.82;;
26920;SDS011;14483;47.844;9.660;2023-12-04T05:42:51;17.45;;;6.10;;
26920;SDS011;14483;47.844;9.660;2023-12-04T05:45:18;14.25;;;4.75;;
26920;SDS011;14483;47.844;9.660;2023-12-04T05:47:44;16.63;;;6.30;;
26920;SDS011;14483;47.844;9.660;2023-12-04T05:50:12;16.70;;;6.68;;
26920;SDS011;14483;47.844;9.660;2023-12-04T05:52:38;17.80;;;5.95;;
26920;SDS011;14483;47.844;9.660;2023-12-04T05:55:04;22.55;;;7.22;;
26920;SDS011;14483;47.844;9.660;2023-12-04T05:57:31;24.27;;;8.57;;
26920;SDS011;14483;47.844;9.660;2023-12-04T05:59:57;28.60;;;7.47;;
26920;SDS011;14483;47.844;9.660;2023-12-04T06:02:24;20.63;;;6.40;;
26920;SDS011;14483;47.844;9.660;2023-12-04T06:04:53;19.15;;;6.22;;
26920;SDS011;14483;47.844;9.660;2023-12-04T06:07:20;16.80;;;6.20;;
26920;SDS011;14483;47.844;9.660;2023-12-04T06:09:47;20.65;;;6.63;;
26920;SDS011;14483;47.844;9.660;2023-12-04T06:12:13;23.42;;;7.53;;
26920;SDS011;14483;47.844;9.660;2023-12-04T06:14:39;29.23;;;6.90;;
26920;SDS011;14483;47.844;9.660;2023-12-04T06:17:06;22.15;;;7.32;;
26920;SDS011;14483;47.844;9.660;2023-12-04T06:19:32;20.75;;;5.60;;
26920;SDS011;14483;47.844;9.660;2023-12-04T06:21:58;17.27;;;6.57;;
26920;SDS011;14483;47.844;9.660;2023-12-04T06:24:26;17.45;;;6.65;;
26920;SDS011;14483;47.844;9.660;2023-12-04T06:26:53;25.65;;;7.60;;
26920;SDS011;14483;47.844;9.660;2023-12-04T06:29:20;21.20;;;7.55;;
26920;SDS011;14483;47.844;9.660;2023-12-04T06:31:46;21.10;;;6.00;;
26920;SDS011;14483;47.844;9.660;2023-12-04T06:34:13;21.25;;;7.63;;
26920;SDS011;14483;47.844;9.660;2023-12-04T06:36:39;23.30;;;7.60;;
26920;SDS011;14483;47.844;9.660;2023-12-04T06:39:07;18.33;;;6.47;;
26920;SDS011;14483;47.844;9.660;2023-12-04T06:41:37;28.95;;;6.30;;
26920;SDS011;14483;47.844;9.660;2023-12-04T06:44:04;18.45;;;6.75;;
26920;SDS011;14483;47.844;9.660;2023-12-04T06:46:30;19.63;;;6.90;;
26920;SDS011;14483;47.844;9.660;2023-12-04T06:48:57;29.25;;;7.43;;
26920;SDS011;14483;47.844;9.660;2023-12-04T06:51:25;26.30;;;7.63;;
26920;SDS011;14483;47.844;9.660;2023-12-04T06:53:51;23.40;;;9.05;;
26920;SDS011;14483;47.844;9.660;2023-12-04T06:56:17;29.98;;;8.85;;
26920;SDS011;14483;47.844;9.660;2023-12-04T06:58:45;31.35;;;11.70;;
26920;SDS011;14483;47.844;9.660;2023-12-04T07:01:11;34.38;;;9.40;;
26920;SDS011;14483;47.844;9.660;2023-12-04T07:03:38;30.92;;;9.40;;
26920;SDS011;14483;47.844;9.660;2023-12-04T07:06:05;21.08;;;8.18;;
26920;SDS011;14483;47.844;9.660;2023-12-04T07:08:31;27.25;;;7.78;;
26920;SDS011;14483;47.844;9.660;2023-12-04T07:10:57;29.27;;;10.00;;
26920;SDS011;14483;47.844;9.660;2023-12-04T07:13:24;31.27;;;12.82;;
26920;SDS011;14483;47.844;9.660;2023-12-04T07:15:51;31.95;;;10.73;;
26920;SDS011;14483;47.844;9.660;2023-12-04T07:18:18;39.55;;;10.55;;
26920;SDS011;14483;47.844;9.660;2023-12-04T07:20:44;29.42;;;9.55;;
26920;SDS011;14483;47.844;9.660;2023-12-04T07:23:10;42.63;;;10.98;;
26920;SDS011;14483;47.844;9.660;2023-12-04T07:25:37;28.75;;;9.05;;
26920;SDS011;14483;47.844;9.660;2023-12-04T07:28:03;27.08;;;8.55;;
26920;SDS011;14483;47.844;9.660;2023-12-04T07:30:30;32.42;;;10.30;;
26920;SDS011;14483;47.844;9.660;2023-12-04T07:32:57;31.50;;;9.68;;
26920;SDS011;14483;47.844;9.660;2023-12-04T07:35:25;25.50;;;8.10;;
26920;SDS011;14483;47.844;9.660;2023-12-04T07:37:51;32.85;;;10.85;;
26920;SDS011;14483;47.844;9.660;2023-12-04T07:40:18;23.45;;;7.68;;
26920;SDS011;14483;47.844;9.660;2023-12-04T07:42:44;17.38;;;6.65;;
26920;SDS011;14483;47.844;9.660;2023-12-04T07:45:10;27.30;;;8.68;;
26920;SDS011;14483;47.844;9.660;2023-12-04T07:47:37;31.50;;;9.55;;
26920;SDS011;14483;47.844;9.660;2023-12-04T07:50:06;28.95;;;8.15;;
26920;SDS011;14483;47.844;9.660;2023-12-04T07:52:32;26.08;;;8.77;;
26920;SDS011;14483;47.844;9.660;2023-12-04T07:54:58;28.35;;;10.65;;
26920;SDS011;14483;47.844;9.660;2023-12-04T07:57:25;33.78;;;11.13;;
26920;SDS011;14483;47.844;9.660;2023-12-04T07:59:51;26.80;;;7.80;;
26920;SDS011;14483;47.844;9.660;2023-12-04T08:02:18;30.08;;;8.38;;
26920;SDS011;14483;47.844;9.660;2023-12-04T08:04:44;27.05;;;7.75;;
26920;SDS011;14483;47.844;9.660;2023-12-04T08:07:12;30.83;;;8.55;;
26920;SDS011;14483;47.844;9.660;2023-12-04T08:09:39;22.60;;;7.55;;
26920;SDS011;14483;47.844;9.660;2023-12-04T08:12:05;37.42;;;11.75;;
26920;SDS011;14483;47.844;9.660;2023-12-04T08:14:32;29.98;;;7.40;;
26920;SDS011;14483;47.844;9.660;2023-12-04T08:16:58;30.23;;;8.48;;
26920;SDS011;14483;47.844;9.660;2023-12-04T08:19:25;28.10;;;8.70;;
26920;SDS011;14483;47.844;9.660;2023-12-04T08:21:51;22.85;;;7.50;;
26920;SDS011;14483;47.844;9.660;2023-12-04T08:24:19;28.10;;;9.18;;
26920;SDS011;14483;47.844;9.660;2023-12-04T08:26:45;35.90;;;8.13;;
26920;SDS011;14483;47.844;9.660;2023-12-04T08:29:11;29.50;;;8.18;;
26920;SDS011;14483;47.844;9.660;2023-12-04T08:31:38;31.25;;;8.57;;
26920;SDS011;14483;47.844;9.660;2023-12-04T08:34:04;20.95;;;7.57;;
26920;SDS011;14483;47.844;9.660;2023-12-04T08:36:30;25.90;;;7.85;;
26920;SDS011;14483;47.844;9.660;2023-12-04T08:38:57;22.63;;;7.70;;
26920;SDS011;14483;47.844;9.660;2023-12-04T08:41:24;28.45;;;7.68;;
26920;SDS011;14483;47.844;9.660;2023-12-04T08:43:53;23.52;;;8.80;;
26920;SDS011;14483;47.844;9.660;2023-12-04T08:46:20;28.42;;;9.07;;
26920;SDS011;14483;47.844;9.660;2023-12-04T08:48:46;32.70;;;8.00;;
26920;SDS011;14483;47.844;9.660;2023-12-04T08:51:15;32.70;;;9.82;;
26920;SDS011;14483;47.844;9.660;2023-12-04T08:53:41;26.27;;;8.50;;
26920;SDS011;14483;47.844;9.660;2023-12-04T08:56:08;30.00;;;9.50;;
26920;SDS011;14483;47.844;9.660;2023-12-04T08:58:36;38.25;;;13.27;;
26920;SDS011;14483;47.844;9.660;2023-12-04T09:01:02;32.35;;;10.43;;
26920;SDS011;14483;47.844;9.660;2023-12-04T09:03:29;162.45;;;40.70;;
26920;SDS011;14483;47.844;9.660;2023-12-04T09:05:56;62.47;;;23.73;;
26920;SDS011;14483;47.844;9.660;2023-12-04T09:08:22;34.97;;;12.40;;
26920;SDS011;14483;47.844;9.660;2023-12-04T09:10:50;30.60;;;9.45;;
26920;SDS011;14483;47.844;9.660;2023-12-04T09:13:17;31.13;;;9.65;;
26920;SDS011;14483;47.844;9.660;2023-12-04T09:15:45;46.30;;;15.90;;
26920;SDS011;14483;47.844;9.660;2023-12-04T09:18:11;27.13;;;8.82;;
26920;SDS011;14483;47.844;9.660;2023-12-04T09:20:37;33.08;;;9.13;;
26920;SDS011;14483;47.844;9.660;2023-12-04T09:23:04;24.70;;;8.43;;
26920;SDS011;14483;47.844;9.660;2023-12-04T09:25:30;35.97;;;10.93;;
26920;SDS011;14483;47.844;9.660;2023-12-04T09:27:56;30.40;;;7.95;;
26920;SDS011;14483;47.844;9.660;2023-12-04T09:30:23;24.58;;;7.75;;
26920;SDS011;14483;47.844;9.660;2023-12-04T09:32:50;27.50;;;8.02;;
26920;SDS011;14483;47.844;9.660;2023-12-04T09:35:17;31.05;;;9.63;;
26920;SDS011;14483;47.844;9.660;2023-12-04T09:37:44;24.27;;;8.10;;
26920;SDS011;14483;47.844;9.660;2023-12-04T09:40:10;35.20;;;13.25;;
26920;SDS011;14483;47.844;9.660;2023-12-04T09:42:37;28.77;;;6.95;;
26920;SDS011;14483;47.844;9.660;2023-12-04T09:45:04;28.33;;;9.35;;
26920;SDS011;14483;47.844;9.660;2023-12-04T09:47:33;23.35;;;8.70;;
26920;SDS011;14483;47.844;9.660;2023-12-04T09:50:01;23.92;;;7.35;;
26920;SDS011;14483;47.844;9.660;2023-12-04T09:52:28;22.50;;;8.75;;
26920;SDS011;14483;47.844;9.660;2023-12-04T09:54:54;20.10;;;7.05;;
26920;SDS011;14483;47.844;9.660;2023-12-04T09:57:21;22.90;;;8.18;;
26920;SDS011;14483;47.844;9.660;2023-12-04T09:59:48;31.85;;;11.20;;
26920;SDS011;14483;47.844;9.660;2023-12-04T10:02:15;26.20;;;9.85;;
26920;SDS011;14483;47.844;9.660;2023-12-04T10:04:41;27.85;;;9.18;;
26920;SDS011;14483;47.844;9.660;2023-12-04T10:07:10;25.35;;;6.57;;
26920;SDS011;14483;47.844;9.660;2023-12-04T10:09:36;24.02;;;9.13;;
26920;SDS011;14483;47.844;9.660;2023-12-04T10:12:03;24.33;;;8.13;;
26920;SDS011;14483;47.844;9.660;2023-12-04T10:14:29;24.75;;;7.40;;
26920;SDS011;14483;47.844;9.660;2023-12-04T10:16:56;19.67;;;6.00;;
26920;SDS011;14483;47.844;9.660;2023-12-04T10:19:23;21.60;;;7.68;;
26920;SDS011;14483;47.844;9.660;2023-12-04T10:21:51;23.75;;;8.95;;
26920;SDS011;14483;47.844;9.660;2023-12-04T10:24:28;29.90;;;9.40;;
26920;SDS011;14483;47.844;9.660;2023-12-04T10:26:55;24.63;;;8.65;;
26920;SDS011;14483;47.844;9.660;2023-12-04T10:29:22;22.60;;;6.78;;
26920;SDS011;14483;47.844;9.660;2023-12-04T10:31:49;21.77;;;7.68;;
26920;SDS011;14483;47.844;9.660;2023-12-04T10:34:17;24.73;;;7.63;;
26920;SDS011;14483;47.844;9.660;2023-12-04T10:36:44;23.00;;;6.40;;
26920;SDS011;14483;47.844;9.660;2023-12-04T10:39:11;17.27;;;6.55;;
26920;SDS011;14483;47.844;9.660;2023-12-04T10:41:39;19.48;;;6.82;;
26920;SDS011;14483;47.844;9.660;2023-12-04T10:44:06;22.60;;;7.70;;
26920;SDS011;14483;47.844;9.660;2023-12-04T10:46:32;23.58;;;8.98;;
26920;SDS011;14483;47.844;9.660;2023-12-04T10:48:59;23.15;;;8.13;;
26920;SDS011;14483;47.844;9.660;2023-12-04T10:51:26;19.10;;;6.35;;
26920;SDS011;14483;47.844;9.660;2023-12-04T10:53:53;27.05;;;9.30;;
26920;SDS011;14483;47.844;9.660;2023-12-04T10:56:22;21.50;;;7.88;;
26920;SDS011;14483;47.844;9.660;2023-12-04T10:58:51;20.73;;;7.22;;
26920;SDS011;14483;47.844;9.660;2023-12-04T11:01:19;25.13;;;9.27;;
26920;SDS011;14483;47.844;9.660;2023-12-04T11:03:47;25.98;;;8.02;;
26920;SDS011;14483;47.844;9.660;2023-12-04T11:06:14;23.63;;;7.93;;
26920;SDS011;14483;47.844;9.660;2023-12-04T11:08:42;23.85;;;7.63;;
26920;SDS011;14483;47.844;9.660;2023-12-04T11:11:10;23.77;;;7.63;;
26920;SDS011;14483;47.844;9.660;2023-12-04T11:13:39;22.33;;;7.95;;
26920;SDS011;14483;47.844;9.660;2023-12-04T11:16:09;25.52;;;8.93;;
26920;SDS011;14483;47.844;9.660;2023-12-04T11:18:39;21.02;;;6.00;;
26920;SDS011;14483;47.844;9.660;2023-12-04T11:21:06;20.92;;;8.35;;
26920;SDS011;14483;47.844;9.660;2023-12-04T11:23:33;23.30;;;7.35;;
26920;SDS011;14483;47.844;9.660;2023-12-04T11:25:59;28.13;;;9.10;;
26920;SDS011;14483;47.844;9.660;2023-12-04T11:28:26;23.20;;;8.65;;
26920;SDS011;14483;47.844;9.660;2023-12-04T11:30:53;22.95;;;8.00;;
26920;SDS011;14483;47.844;9.660;2023-12-04T11:33:21;27.88;;;8.50;;
26920;SDS011;14483;47.844;9.660;2023-12-04T11:35:48;24.48;;;7.50;;
26920;SDS011;14483;47.844;9.660;2023-12-04T11:38:16;22.48;;;6.93;;
26920;SDS011;14483;47.844;9.660;2023-12-04T11:40:42;23.05;;;8.23;;
26920;SDS011;14483;47.844;9.660;2023-12-04T11:43:21;16.35;;;7.43;;
26920;SDS011;14483;47.844;9.660;2023-12-04T11:45:48;26.10;;;8.48;;
26920;SDS011;14483;47.844;9.660;2023-12-04T11:48:15;20.15;;;7.32;;
26920;SDS011;14483;47.844;9.660;2023-12-04T11:50:43;27.08;;;8.85;;
26920;SDS011;14483;47.844;9.660;2023-12-04T11:53:10;32.03;;;10.50;;
26920;SDS011;14483;47.844;9.660;2023-12-04T11:55:38;26.20;;;8.82;;
26920;SDS011;14483;47.844;9.660;2023-12-04T11:58:08;18.98;;;7.45;;
26920;SDS011;14483;47.844;9.660;2023-12-04T12:00:34;18.05;;;7.05;;
26920;SDS011;14483;47.844;9.660;2023-12-04T12:03:01;28.90;;;9.00;;
26920;SDS011;14483;47.844;9.660;2023-12-04T12:05:31;25.45;;;7.78;;
26920;SDS011;14483;47.844;9.660;2023-12-04T12:08:01;19.38;;;7.50;;
26920;SDS011;14483;47.844;9.660;2023-12-04T12:10:27;30.85;;;8.50;;
26920;SDS011;14483;47.844;9.660;2023-12-04T12:12:54;28.45;;;10.30;;
26920;SDS011;14483;47.844;9.660;2023-12-04T12:15:21;30.83;;;10.70;;
26920;SDS011;14483;47.844;9.660;2023-12-04T12:17:47;27.77;;;9.77;;
26920;SDS011;14483;47.844;9.660;2023-12-04T12:20:14;20.50;;;6.90;;
26920;SDS011;14483;47.844;9.660;2023-12-04T12:22:40;21.15;;;8.32;;
26920;SDS011;14483;47.844;9.660;2023-12-04T12:25:10;21.15;;;8.65;;
26920;SDS011;14483;47.844;9.660;2023-12-04T12:27:37;25.60;;;8.25;;
26920;SDS011;14483;47.844;9.660;2023-12-04T12:30:03;24.98;;;9.52;;
26920;SDS011;14483;47.844;9.660;2023-12-04T12:32:31;21.67;;;7.20;;
26920;SDS011;14483;47.844;9.660;2023-12-04T12:34:57;23.80;;;8.57;;
26920;SDS011;14483;47.844;9.660;2023-12-04T12:37:23;22.85;;;7.60;;
26920;SDS011;14483;47.844;9.660;2023-12-04T12:39:50;22.63;;;8.38;;
26920;SDS011;14483;47.844;9.660;2023-12-04T12:42:22;25.10;;;9.25;;
26920;SDS011;14483;47.844;9.660;2023-12-04T12:44:48;25.92;;;9.90;;
26920;SDS011;14483;47.844;9.660;2023-12-04T12:47:15;22.15;;;8.90;;
26920;SDS011;14483;47.844;9.660;2023-12-04T12:49:41;23.67;;;8.68;;
26920;SDS011;14483;47.844;9.660;2023-12-04T12:52:07;19.20;;;7.20;;
26920;SDS011;14483;47.844;9.660;2023-12-04T12:54:36;27.25;;;8.90;;
26920;SDS011;14483;47.844;9.660;2023-12-04T12:57:02;27.13;;;9.40;;
26920;SDS011;14483;47.844;9.660;2023-12-04T12:59:30;24.08;;;8.13;;
26920;SDS011;14483;47.844;9.660;2023-12-04T13:01:57;21.52;;;7.80;;
26920;SDS011;14483;47.844;9.660;2023-12-04T13:04:25;22.25;;;8.15;;
26920;SDS011;14483;47.844;9.660;2023-12-04T13:06:51;24.90;;;8.80;;
26920;SDS011;14483;47.844;9.660;2023-12-04T13:09:18;23.98;;;8.48;;
26920;SDS011;14483;47.844;9.660;2023-12-04T13:11:45;24.95;;;9.35;;
26920;SDS011;14483;47.844;9.660;2023-12-04T13:14:11;26.35;;;9.13;;
26920;SDS011;14483;47.844;9.660;2023-12-04T13:16:39;24.58;;;8.98;;
26920;SDS011;14483;47.844;9.660;2023-12-04T13:19:06;24.13;;;9.30;;
26920;SDS011;14483;47.844;9.660;2023-12-04T13:21:32;20.33;;;7.55;;
26920;SDS011;14483;47.844;9.660;2023-12-04T13:23:58;19.02;;;7.70;;
26920;SDS011;14483;47.844;9.660;2023-12-04T13:26:25;24.98;;;7.43;;
26920;SDS011;14483;47.844;9.660;2023-12-04T13:28:51;18.30;;;7.03;;
26920;SDS011;14483;47.844;9.660;2023-12-04T13:31:18;17.38;;;6.85;;
26920;SDS011;14483;47.844;9.660;2023-12-04T13:33:46;23.13;;;7.78;;
26920;SDS011;14483;47.844;9.660;2023-12-04T13:36:13;26.60;;;7.65;;
26920;SDS011;14483;47.844;9.660;2023-12-04T13:38:39;28.20;;;10.63;;
26920;SDS011;14483;47.844;9.660;2023-12-04T13:41:06;31.55;;;8.57;;
26920;SDS011;14483;47.844;9.660;2023-12-04T13:43:54;21.25;;;7.85;;
26920;SDS011;14483;47.844;9.660;2023-12-04T13:46:20;24.58;;;9.50;;
26920;SDS011;14483;47.844;9.660;2023-12-04T13:48:49;25.75;;;9.32;;
26920;SDS011;14483;47.844;9.660;2023-12-04T13:51:15;27.45;;;10.02;;
26920;SDS011;14483;47.844;9.660;2023-12-04T13:53:42;39.30;;;12.95;;
26920;SDS011;14483;47.844;9.660;2023-12-04T13:56:10;34.78;;;12.98;;
26920;SDS011;14483;47.844;9.660;2023-12-04T13:58:50;31.30;;;11.95;;
26920;SDS011;14483;47.844;9.660;2023-12-04T14:01:21;26.83;;;9.55;;
26920;SDS011;14483;47.844;9.660;2023-12-04T14:03:50;29.10;;;10.57;;
26920;SDS011;14483;47.844;9.660;2023-12-04T14:06:17;26.30;;;9.10;;
26920;SDS011;14483;47.844;9.660;2023-12-04T14:08:43;26.92;;;9.85;;
26920;SDS011;14483;47.844;9.660;2023-12-04T14:11:11;26.65;;;8.82;;
26920;SDS011;14483;47.844;9.660;2023-12-04T14:13:39;27.52;;;8.60;;
26920;SDS011;14483;47.844;9.660;2023-12-04T14:16:06;18.63;;;8.15;;
26920;SDS011;14483;47.844;9.660;2023-12-04T14:18:32;25.98;;;11.40;;
26920;SDS011;14483;47.844;9.660;2023-12-04T14:21:00;25.67;;;9.95;;
26920;SDS011;14483;47.844;9.660;2023-12-04T14:23:27;25.02;;;11.77;;
26920;SDS011;14483;47.844;9.660;2023-12-04T14:25:53;24.80;;;10.25;;
26920;SDS011;14483;47.844;9.660;2023-12-04T14:28:19;30.30;;;11.02;;
26920;SDS011;14483;47.844;9.660;2023-12-04T14:30:46;25.05;;;9.82;;
26920;SDS011;14483;47.844;9.660;2023-12-04T14:33:13;28.00;;;10.63;;